createdAt,value
2023-04-19T00:02:16.992Z,1.52
2023-04-19T00:04:45.522Z,2.20
2023-04-19T00:07:13.599Z,0.90
2023-04-19T00:09:43.713Z,1.65
2023-04-19T00:12:11.263Z,2.28
2023-04-19T00:14:38.745Z,2.80
2023-04-19T00:17:06.306Z,1.42
2023-04-19T00:19:33.814Z,1.80
2023-04-19T00:22:01.247Z,2.25
2023-04-19T00:24:28.664Z,2.63
2023-04-19T00:26:56.019Z,2.58
2023-04-19T00:29:23.349Z,2.03
2023-04-19T00:31:50.699Z,2.22
2023-04-19T00:34:18.016Z,2.40
2023-04-19T00:36:45.355Z,3.03
2023-04-19T00:39:13.149Z,1.80
2023-04-19T00:41:40.527Z,1.70
2023-04-19T00:44:07.986Z,2.45
2023-04-19T00:46:35.582Z,2.22
2023-04-19T00:49:03.164Z,2.10
2023-04-19T00:51:31.528Z,2.72
2023-04-19T00:53:59.132Z,2.58
2023-04-19T00:56:27.822Z,1.92
2023-04-19T00:58:55.742Z,3.28
2023-04-19T01:01:23.778Z,2.50
2023-04-19T01:03:51.364Z,3.22
2023-04-19T01:06:18.928Z,3.13
2023-04-19T01:08:46.376Z,3.03
2023-04-19T01:11:13.707Z,1.95
2023-04-19T01:13:41.077Z,2.20
2023-04-19T01:16:08.493Z,2.85
2023-04-19T01:18:37.776Z,2.13
2023-04-19T01:21:05.540Z,3.03
2023-04-19T01:23:32.925Z,3.47
2023-04-19T01:26:01.401Z,3.60
2023-04-19T01:28:28.862Z,1.95
2023-04-19T01:30:56.282Z,2.20
2023-04-19T01:33:23.886Z,1.65
2023-04-19T01:35:51.294Z,2.75
2023-04-19T01:38:18.701Z,2.35
2023-04-19T01:40:46.112Z,2.50
2023-04-19T01:43:14.231Z,2.55
2023-04-19T01:45:41.576Z,2.77
2023-04-19T01:48:08.973Z,2.53
2023-04-19T01:50:38.817Z,2.55
2023-04-19T01:53:06.228Z,2.05
2023-04-19T01:55:33.590Z,2.75
2023-04-19T01:58:01.013Z,3.17
2023-04-19T02:00:28.400Z,2.50
2023-04-19T02:02:55.937Z,1.92
2023-04-19T02:05:23.539Z,2.22
2023-04-19T02:07:51.155Z,2.20
2023-04-19T02:10:18.516Z,4.05
2023-04-19T02:12:45.878Z,2.97
2023-04-19T02:15:13.329Z,1.23
2023-04-19T02:17:40.877Z,2.53
2023-04-19T02:20:09.262Z,2.63
2023-04-19T02:22:36.673Z,2.30
2023-04-19T02:25:04.667Z,2.38
2023-04-19T02:27:31.993Z,3.30
2023-04-19T02:29:59.342Z,2.35
2023-04-19T02:32:26.953Z,2.00
2023-04-19T02:34:54.337Z,3.15
2023-04-19T02:37:21.686Z,2.40
2023-04-19T02:39:49.146Z,2.75
2023-04-19T02:42:16.483Z,2.67
2023-04-19T02:44:43.853Z,2.40
2023-04-19T02:47:11.180Z,2.65
2023-04-19T02:49:41.506Z,1.83
2023-04-19T02:52:09.061Z,3.30
2023-04-19T02:54:36.446Z,3.20
2023-04-19T02:57:03.832Z,3.35
2023-04-19T02:59:31.319Z,2.95
2023-04-19T03:01:58.746Z,3.05
2023-04-19T03:04:26.225Z,3.25
2023-04-19T03:06:53.706Z,4.88
2023-04-19T03:09:21.003Z,3.60
2023-04-19T03:11:48.451Z,3.42
2023-04-19T03:14:16.026Z,3.50
2023-04-19T03:16:43.503Z,2.22
2023-04-19T03:19:11.682Z,3.17
2023-04-19T03:21:39.103Z,3.33
2023-04-19T03:24:06.575Z,2.90
2023-04-19T03:26:33.913Z,4.57
2023-04-19T03:29:01.661Z,3.47
2023-04-19T03:31:29.047Z,2.40
2023-04-19T03:33:56.566Z,1.65
2023-04-19T03:36:23.978Z,2.88
2023-04-19T03:38:51.385Z,2.60
2023-04-19T03:41:19.149Z,3.33
2023-04-19T03:43:46.457Z,3.05
2023-04-19T03:46:13.853Z,3.55
2023-04-19T03:48:41.240Z,4.22
2023-04-19T03:51:08.645Z,3.90
2023-04-19T03:53:36.405Z,3.45
2023-04-19T03:56:04.015Z,3.92
2023-04-19T03:58:31.402Z,2.88
2023-04-19T04:00:59.663Z,3.30
2023-04-19T04:03:27.299Z,3.28
2023-04-19T04:05:54.720Z,2.90
2023-04-19T04:08:22.053Z,3.83
2023-04-19T04:10:49.428Z,2.25
2023-04-19T04:13:16.732Z,3.83
2023-04-19T04:15:44.074Z,4.22
2023-04-19T04:18:11.450Z,3.38
2023-04-19T04:20:38.792Z,3.88
2023-04-19T04:23:07.628Z,3.35
2023-04-19T04:25:37.699Z,2.97
2023-04-19T04:28:05.300Z,3.40
2023-04-19T04:30:33.917Z,2.58
2023-04-19T04:33:01.439Z,3.58
2023-04-19T04:35:30.135Z,2.80
2023-04-19T04:37:57.598Z,4.10
2023-04-19T04:40:24.979Z,3.67
2023-04-19T04:42:53.125Z,4.00
2023-04-19T04:45:20.618Z,5.90
2023-04-19T04:47:48.054Z,3.05
2023-04-19T04:50:15.741Z,2.17
2023-04-19T04:52:43.099Z,3.50
2023-04-19T04:55:11.303Z,2.20
2023-04-19T04:57:38.665Z,2.07
2023-04-19T05:00:07.073Z,3.15
2023-04-19T05:02:34.497Z,4.30
2023-04-19T05:05:01.960Z,3.70
2023-04-19T05:07:29.306Z,3.70
2023-04-19T05:09:56.666Z,3.78
2023-04-19T05:12:23.996Z,3.10
2023-04-19T05:14:51.335Z,2.80
2023-04-19T05:17:18.760Z,2.90
2023-04-19T05:19:45.844Z,3.55
2023-04-19T05:22:13.468Z,1.83
2023-04-19T05:24:42.422Z,3.05
2023-04-19T05:27:09.934Z,3.03
2023-04-19T05:29:37.345Z,3.60
2023-04-19T05:32:04.703Z,3.33
2023-04-19T05:34:32.074Z,4.93
2023-04-19T05:36:59.542Z,4.32
2023-04-19T05:39:27.318Z,3.42
2023-04-19T05:41:54.656Z,4.10
2023-04-19T05:44:22.028Z,2.45
2023-04-19T05:46:49.356Z,2.70
2023-04-19T05:49:16.675Z,4.35
2023-04-19T05:51:44.055Z,3.95
2023-04-19T05:54:12.883Z,3.60
2023-04-19T05:56:40.352Z,3.75
2023-04-19T05:59:08.522Z,4.72
2023-04-19T06:01:35.829Z,3.73
2023-04-19T06:04:03.403Z,3.35
2023-04-19T06:06:30.985Z,4.15
2023-04-19T06:08:58.467Z,5.15
2023-04-19T06:11:31.764Z,4.40
2023-04-19T06:14:06.389Z,4.35
2023-04-19T06:16:35.087Z,3.13
2023-04-19T06:19:02.584Z,4.75
2023-04-19T06:21:33.063Z,3.95
2023-04-19T06:24:00.578Z,3.20
2023-04-19T06:26:27.969Z,4.10
2023-04-19T06:28:55.369Z,5.05
2023-04-19T06:31:22.767Z,4.25
2023-04-19T06:33:50.120Z,5.25
2023-04-19T06:36:17.440Z,5.22
2023-04-19T06:38:46.609Z,4.65
2023-04-19T06:41:14.000Z,4.43
2023-04-19T06:43:42.859Z,4.05
2023-04-19T06:46:10.473Z,4.00
2023-04-19T06:48:37.837Z,4.32
2023-04-19T06:51:05.628Z,4.13
2023-04-19T06:53:33.051Z,5.50
2023-04-19T06:56:01.296Z,4.90
2023-04-19T06:58:29.171Z,5.13
2023-04-19T07:00:56.861Z,4.03
2023-04-19T07:03:24.656Z,2.15
2023-04-19T07:05:56.618Z,4.28
2023-04-19T07:08:27.902Z,2.75
2023-04-19T07:10:59.689Z,4.30
2023-04-19T07:13:27.110Z,4.95
2023-04-19T07:15:54.471Z,5.65
2023-04-19T07:18:21.853Z,3.25
2023-04-19T07:20:49.651Z,3.72
2023-04-19T07:23:17.258Z,3.17
2023-04-19T07:25:44.631Z,3.13
2023-04-19T07:28:11.956Z,4.18
2023-04-19T07:30:39.393Z,7.25
2023-04-19T07:33:08.698Z,3.55
2023-04-19T07:35:36.196Z,4.13
2023-04-19T07:38:03.522Z,4.80
2023-04-19T07:40:30.913Z,4.80
2023-04-19T07:42:58.477Z,3.20
2023-04-19T07:45:25.945Z,3.28
2023-04-19T07:47:53.492Z,5.00
2023-04-19T07:50:23.124Z,4.10
2023-04-19T07:52:50.999Z,5.05
2023-04-19T07:55:20.826Z,3.70
2023-04-19T07:57:51.281Z,3.13
2023-04-19T08:00:19.102Z,3.80
2023-04-19T08:02:47.289Z,2.58
2023-04-19T08:05:17.835Z,3.45
2023-04-19T08:07:45.977Z,4.38
2023-04-19T08:10:13.404Z,2.92
2023-04-19T08:12:50.375Z,4.35
2023-04-19T08:16:03.423Z,4.05
2023-04-19T08:18:12.004Z,3.05
2023-04-19T08:20:42.591Z,3.70
2023-04-19T08:23:21.393Z,3.38
2023-04-19T08:25:51.674Z,5.15
2023-04-19T08:28:19.623Z,2.88
2023-04-19T08:30:47.012Z,4.38
2023-04-19T08:33:14.502Z,3.30
2023-04-19T08:35:42.145Z,2.22
2023-04-19T08:38:09.867Z,3.35
2023-04-19T08:40:38.754Z,2.78
2023-04-19T08:43:07.363Z,2.70
2023-04-19T08:45:35.355Z,3.30
2023-04-19T08:48:04.207Z,2.70
2023-04-19T08:53:23.934Z,2.80
2023-04-19T08:56:08.610Z,2.80
2023-04-19T08:58:57.887Z,1.67
2023-04-19T09:01:35.599Z,1.95
2023-04-19T09:04:26.454Z,1.92
2023-04-19T09:06:55.874Z,2.97
2023-04-19T09:09:37.075Z,4.23
2023-04-19T09:12:17.700Z,3.15
2023-04-19T09:17:18.764Z,1.80
2023-04-19T09:19:47.506Z,2.67
2023-04-19T09:22:15.134Z,1.98
2023-04-19T09:27:13.032Z,1.42
2023-04-19T09:29:40.414Z,1.27
2023-04-19T09:32:07.880Z,1.25
2023-04-19T09:34:35.261Z,0.40
2023-04-19T09:37:29.482Z,0.80
2023-04-19T09:40:00.436Z,0.93
2023-04-19T09:48:01.215Z,0.65
2023-04-19T09:50:28.868Z,0.68
2023-04-19T09:52:56.404Z,0.93
2023-04-19T09:55:27.397Z,0.68
2023-04-19T09:57:55.930Z,0.50
2023-04-19T10:00:23.508Z,0.98
2023-04-19T10:02:58.418Z,0.60
2023-04-19T10:05:26.832Z,1.13
2023-04-19T10:07:58.833Z,1.23
2023-04-19T10:10:41.359Z,0.98
2023-04-19T10:13:19.785Z,0.45
2023-04-19T10:18:24.678Z,0.25
2023-04-19T10:21:04.814Z,1.45
2023-04-19T10:23:32.709Z,0.88
2023-04-19T10:26:00.087Z,0.70
2023-04-19T10:28:31.112Z,0.82
2023-04-19T10:31:02.545Z,0.80
2023-04-19T10:33:32.107Z,0.75
2023-04-19T10:36:00.153Z,1.20
2023-04-19T10:38:43.430Z,0.82
2023-04-19T10:41:18.566Z,0.35
2023-04-19T10:44:09.459Z,0.52
2023-04-19T10:46:37.758Z,0.47
2023-04-19T10:49:05.950Z,1.27
2023-04-19T10:51:33.302Z,0.30
2023-04-19T10:54:01.894Z,0.50
2023-04-19T10:56:35.515Z,0.43
2023-04-19T10:59:03.114Z,1.25
2023-04-19T11:01:45.742Z,0.05
2023-04-19T11:04:17.177Z,0.38
2023-04-19T11:06:53.991Z,0.15
2023-04-19T11:09:24.802Z,0.52
2023-04-19T11:11:53.395Z,0.50
2023-04-19T11:14:25.008Z,0.63
2023-04-19T11:16:52.398Z,0.10
2023-04-19T11:19:20.393Z,0.75
2023-04-19T11:21:48.239Z,1.25
2023-04-19T11:24:19.213Z,0.20
2023-04-19T11:26:47.122Z,0.98
2023-04-19T11:29:15.180Z,0.63
2023-04-19T11:31:46.867Z,0.40
2023-04-19T11:34:14.623Z,0.85
2023-04-19T11:36:49.169Z,0.40
2023-04-19T11:39:16.644Z,0.20
2023-04-19T11:41:44.051Z,0.65
2023-04-19T11:44:20.554Z,0.08
2023-04-19T11:47:05.372Z,0.10
2023-04-19T11:49:33.949Z,0.15
2023-04-19T11:52:05.310Z,0.55
2023-04-19T11:54:33.307Z,0.30
2023-04-19T11:57:05.014Z,0.25
2023-04-19T11:59:33.039Z,0.10
2023-04-19T12:02:13.190Z,0.22
2023-04-19T12:04:41.098Z,0.30
2023-04-19T12:07:08.667Z,0.10
2023-04-19T12:09:37.011Z,0.20
2023-04-19T12:12:04.601Z,0.45
2023-04-19T12:14:32.055Z,0.30
2023-04-19T12:17:13.522Z,0.30
2023-04-19T12:19:44.681Z,0.20
2023-04-19T12:22:13.963Z,0.15
2023-04-19T12:24:41.723Z,0.25
2023-04-19T12:27:09.380Z,0.30
2023-04-19T12:29:38.658Z,0.40
2023-04-19T12:32:06.349Z,0.43
2023-04-19T12:34:33.895Z,0.10
2023-04-19T12:37:01.344Z,0.20
2023-04-19T12:39:29.040Z,0.80
2023-04-19T12:41:58.668Z,0.38
2023-04-19T12:44:26.310Z,0.50
2023-04-19T12:46:57.599Z,0.95
2023-04-19T12:49:25.248Z,0.35
2023-04-19T12:51:53.401Z,0.82
2023-04-19T12:54:21.938Z,0.32
2023-04-19T12:56:49.348Z,0.63
2023-04-19T12:59:16.793Z,0.20
2023-04-19T13:01:44.321Z,0.43
2023-04-19T13:04:12.176Z,0.17
2023-04-19T13:06:40.744Z,1.17
2023-04-19T13:09:14.309Z,0.50
2023-04-19T13:11:42.132Z,0.52
2023-04-19T13:14:10.213Z,0.40
2023-04-19T13:16:42.964Z,1.33
2023-04-19T13:19:12.751Z,0.32
2023-04-19T13:21:40.172Z,0.95
2023-04-19T13:24:07.644Z,0.50
2023-04-19T13:26:35.113Z,0.65
2023-04-19T13:29:02.489Z,0.63
2023-04-19T13:31:30.043Z,0.45
2023-04-19T13:33:57.819Z,0.55
2023-04-19T13:36:25.144Z,1.27
2023-04-19T13:38:52.518Z,1.63
2023-04-19T13:41:19.819Z,0.77
2023-04-19T13:43:47.313Z,0.52
2023-04-19T13:46:15.065Z,0.73
2023-04-19T13:48:42.469Z,1.08
2023-04-19T13:51:09.819Z,0.82
2023-04-19T13:53:37.264Z,1.50
2023-04-19T13:56:04.764Z,1.23
2023-04-19T13:58:32.143Z,1.20
2023-04-19T14:00:59.531Z,1.23
2023-04-19T14:03:27.279Z,1.25
2023-04-19T14:05:54.882Z,0.77
2023-04-19T14:08:22.188Z,0.73
2023-04-19T14:10:50.389Z,1.13
2023-04-19T14:13:17.848Z,1.03
2023-04-19T14:15:45.244Z,0.88
2023-04-19T14:18:12.566Z,0.85
2023-04-19T14:20:39.960Z,0.75
2023-04-19T14:23:07.255Z,0.55
2023-04-19T14:25:34.603Z,0.40
2023-04-19T14:28:03.223Z,0.88
2023-04-19T14:30:40.412Z,0.82
2023-04-19T14:33:07.734Z,0.40
2023-04-19T14:35:35.319Z,0.28
2023-04-19T14:38:03.220Z,1.13
2023-04-19T14:40:30.628Z,0.85
2023-04-19T14:42:58.126Z,0.60
2023-04-19T14:45:26.114Z,1.08
2023-04-19T14:47:53.489Z,0.73
2023-04-19T14:50:21.619Z,0.40
2023-04-19T14:52:49.408Z,1.00
2023-04-19T14:55:16.889Z,0.57
2023-04-19T14:57:44.316Z,0.50
2023-04-19T15:00:12.009Z,1.08
2023-04-19T15:02:39.541Z,0.30
2023-04-19T15:05:07.344Z,0.47
2023-04-19T15:07:34.855Z,0.90
2023-04-19T15:10:02.181Z,0.55
2023-04-19T15:12:29.519Z,0.57
2023-04-19T15:14:56.831Z,0.52
2023-04-19T15:17:24.285Z,1.95
2023-04-19T15:19:51.707Z,0.88
2023-04-19T15:22:19.069Z,1.45
2023-04-19T15:24:46.464Z,0.60
2023-04-19T15:27:13.802Z,1.30
2023-04-19T15:29:41.507Z,0.93
2023-04-19T15:32:08.895Z,0.82
2023-04-19T15:34:36.216Z,2.30
2023-04-19T15:37:06.070Z,1.63
2023-04-19T15:39:33.668Z,0.75
2023-04-19T15:42:02.105Z,1.27
2023-04-19T15:44:29.890Z,2.00
2023-04-19T15:46:57.252Z,1.40
2023-04-19T15:49:24.676Z,1.50
2023-04-19T15:51:52.009Z,0.75
2023-04-19T15:54:21.629Z,0.95
2023-04-19T15:56:48.978Z,1.20
2023-04-19T15:59:16.552Z,1.23
2023-04-19T16:01:44.083Z,0.65
2023-04-19T16:04:11.743Z,0.82
2023-04-19T16:06:39.365Z,0.80
2023-04-19T16:09:07.765Z,0.70
2023-04-19T16:11:35.108Z,1.25
2023-04-19T16:14:02.459Z,1.50
2023-04-19T16:16:33.248Z,1.30
2023-04-19T16:19:00.779Z,0.63
2023-04-19T16:21:28.954Z,0.47
2023-04-19T16:23:56.581Z,0.73
2023-04-19T16:26:23.994Z,1.15
2023-04-19T16:28:51.507Z,1.85
2023-04-19T16:31:18.887Z,0.55
2023-04-19T16:33:46.369Z,0.68
2023-04-19T16:36:13.839Z,0.82
2023-04-19T16:38:41.273Z,1.00
2023-04-19T16:41:08.905Z,0.50
2023-04-19T16:43:37.063Z,0.80
2023-04-19T16:46:04.585Z,1.00
2023-04-19T16:48:32.123Z,1.80
2023-04-19T16:50:59.536Z,0.68
2023-04-19T16:53:26.945Z,0.50
2023-04-19T16:55:56.351Z,1.05
2023-04-19T16:58:24.048Z,0.75
2023-04-19T17:00:51.816Z,1.38
2023-04-19T17:03:19.682Z,2.50
2023-04-19T17:05:47.440Z,1.20
2023-04-19T17:08:14.962Z,1.35
2023-04-19T17:10:42.372Z,1.80
2023-04-19T17:13:11.494Z,1.25
2023-04-19T17:15:40.499Z,0.88
2023-04-19T17:20:36.081Z,0.90
2023-04-19T17:23:03.804Z,0.73
2023-04-19T17:25:31.380Z,0.75
2023-04-19T17:27:59.673Z,1.20
2023-04-19T17:30:27.464Z,1.13
2023-04-19T17:32:55.470Z,1.63
2023-04-19T17:35:23.391Z,1.05
2023-04-19T17:37:51.064Z,1.08
2023-04-19T17:40:19.118Z,0.95
2023-04-19T17:42:47.164Z,0.90
2023-04-19T17:45:14.971Z,0.60
2023-04-19T17:47:43.325Z,0.80
2023-04-19T17:50:12.306Z,1.08
2023-04-19T17:55:08.116Z,0.75
2023-04-19T17:57:36.230Z,0.20
2023-04-19T18:00:08.021Z,0.65
2023-04-19T18:02:36.242Z,1.45
2023-04-19T18:05:04.193Z,0.75
2023-04-19T18:07:32.252Z,0.65
2023-04-19T18:10:00.158Z,1.27
2023-04-19T18:12:28.498Z,0.90
2023-04-19T18:14:56.484Z,4.75
2023-04-19T18:17:26.194Z,0.82
2023-04-19T18:22:39.700Z,0.88
2023-04-19T18:25:07.297Z,1.38
2023-04-19T18:27:35.807Z,1.20
2023-04-19T18:30:05.179Z,0.75
2023-04-19T18:32:33.369Z,1.20
2023-04-19T18:35:01.472Z,0.68
2023-04-19T18:37:29.629Z,1.42
2023-04-19T18:39:57.559Z,0.60
2023-04-19T18:42:25.445Z,1.73
2023-04-19T18:44:54.742Z,0.73
2023-04-19T18:47:23.298Z,1.20
2023-04-19T18:52:22.452Z,0.98
2023-04-19T18:54:50.669Z,0.20
2023-04-19T18:57:23.454Z,0.47
2023-04-19T18:59:57.193Z,1.05
2023-04-19T19:02:27.577Z,0.45
2023-04-19T19:05:02.114Z,0.63
2023-04-19T19:07:36.876Z,1.58
2023-04-19T19:10:18.412Z,0.73
2023-04-19T19:12:50.072Z,1.05
2023-04-19T19:15:18.885Z,0.70
2023-04-19T19:17:49.633Z,0.10
2023-04-19T19:20:18.298Z,1.52
2023-04-19T19:22:46.212Z,0.57
2023-04-19T19:25:15.014Z,1.05
2023-04-19T19:27:58.306Z,0.60
2023-04-19T19:30:35.896Z,0.70
2023-04-19T19:33:05.521Z,0.20
2023-04-19T19:35:34.808Z,0.40
2023-04-19T19:38:03.161Z,1.33
2023-04-19T19:40:32.412Z,0.77
2023-04-19T19:43:01.883Z,0.40
2023-04-19T19:45:31.901Z,0.82
2023-04-19T19:48:00.650Z,0.45
2023-04-19T19:53:02.825Z,0.35
2023-04-19T19:55:31.110Z,0.63
2023-04-19T20:00:45.124Z,1.67
2023-04-19T20:03:14.919Z,0.35
2023-04-19T20:08:13.523Z,0.30
2023-04-19T20:10:42.206Z,1.08
2023-04-19T20:13:21.348Z,0.40
2023-04-19T20:15:49.930Z,0.85
2023-04-19T20:18:18.031Z,0.65
2023-04-19T20:20:46.423Z,0.98
2023-04-19T20:23:17.430Z,0.88
2023-04-19T20:25:45.482Z,0.65
2023-04-19T20:28:13.711Z,0.47
2023-04-19T20:30:42.138Z,0.50
2023-04-19T20:33:10.450Z,0.82
2023-04-19T20:35:38.550Z,0.65
2023-04-19T20:38:07.837Z,0.15
2023-04-19T20:40:35.890Z,0.30
2023-04-19T20:43:03.647Z,0.63
2023-04-19T20:45:34.154Z,0.17
2023-04-19T20:48:02.247Z,0.65
2023-04-19T20:50:30.012Z,0.93
2023-04-19T20:53:00.918Z,1.20
2023-04-19T20:55:28.429Z,0.30
2023-04-19T20:57:56.294Z,0.75
2023-04-19T21:00:23.830Z,0.68
2023-04-19T21:02:54.648Z,1.73
2023-04-19T21:05:22.511Z,1.20
2023-04-19T21:07:49.890Z,0.75
2023-04-19T21:10:17.444Z,0.82
2023-04-19T21:12:45.106Z,0.70
2023-04-19T21:15:12.444Z,0.73
2023-04-19T21:17:40.018Z,1.10
2023-04-19T21:20:12.405Z,0.98
2023-04-19T21:22:40.552Z,1.23
2023-04-19T21:25:08.357Z,1.33
2023-04-19T21:27:36.758Z,0.63
2023-04-19T21:30:04.835Z,1.17
2023-04-19T21:32:32.199Z,0.80
2023-04-19T21:35:00.065Z,0.28
2023-04-19T21:37:27.908Z,1.05
2023-04-19T21:39:55.690Z,0.57
2023-04-19T21:42:23.040Z,0.68
2023-04-19T21:44:50.383Z,0.90
2023-04-19T21:47:17.952Z,0.52
2023-04-19T21:49:47.149Z,0.30
2023-04-19T21:52:14.630Z,0.60
2023-04-19T21:54:41.994Z,0.30
2023-04-19T21:57:10.322Z,1.00
2023-04-19T21:59:37.984Z,1.10
2023-04-19T22:02:05.465Z,0.50
2023-04-19T22:04:32.903Z,0.38
2023-04-19T22:07:03.398Z,1.00
2023-04-19T22:09:31.133Z,0.68
2023-04-19T22:11:58.588Z,0.98
2023-04-19T22:14:25.938Z,0.90
2023-04-19T22:16:54.287Z,1.10
2023-04-19T22:19:24.623Z,0.43
2023-04-19T22:21:53.544Z,1.17
2023-04-19T22:24:21.989Z,0.75
2023-04-19T22:26:50.283Z,0.38
2023-04-19T22:29:18.430Z,0.65
2023-04-19T22:31:46.177Z,1.27
2023-04-19T22:34:13.591Z,0.63
2023-04-19T22:36:41.441Z,0.35
2023-04-19T22:39:09.264Z,1.58
2023-04-19T22:41:36.578Z,0.65
2023-04-19T22:44:04.332Z,0.80
2023-04-19T22:46:33.109Z,0.65
2023-04-19T22:49:00.869Z,0.38
2023-04-19T22:51:29.499Z,0.82
2023-04-19T22:53:57.951Z,0.50
2023-04-19T22:56:25.370Z,0.60
2023-04-19T22:58:52.787Z,0.57
2023-04-19T23:01:20.221Z,0.85
2023-04-19T23:03:47.602Z,0.80
2023-04-19T23:06:15.145Z,0.90
2023-04-19T23:08:42.484Z,0.93
2023-04-19T23:11:12.693Z,0.60
2023-04-19T23:13:41.443Z,1.23
2023-04-19T23:16:11.115Z,1.23
2023-04-19T23:18:38.888Z,1.13
2023-04-19T23:21:06.199Z,0.40
2023-04-19T23:23:33.594Z,0.25
2023-04-19T23:26:01.018Z,0.98
2023-04-19T23:28:28.357Z,0.57
2023-04-19T23:30:55.871Z,1.02
2023-04-19T23:33:23.215Z,1.85
2023-04-19T23:35:51.039Z,0.30
2023-04-19T23:38:18.965Z,0.43
2023-04-19T23:40:46.628Z,0.73
2023-04-19T23:43:14.105Z,0.75
2023-04-19T23:45:41.471Z,1.33
2023-04-19T23:48:08.928Z,0.50
2023-04-19T23:50:36.355Z,1.40
2023-04-19T23:53:05.640Z,0.52
2023-04-19T23:55:33.017Z,0.57
2023-04-19T23:58:00.350Z,0.70
